createdAt,value
2023-03-26T00:00:32.490Z,96.14
2023-03-26T00:01:32.478Z,96.08
2023-03-26T00:02:32.480Z,95.95
2023-03-26T00:03:32.412Z,95.94
2023-03-26T00:04:32.407Z,95.79
2023-03-26T00:05:32.435Z,95.66
2023-03-26T00:06:32.408Z,95.51
2023-03-26T00:07:32.361Z,95.44
2023-03-26T00:08:32.396Z,95.29
2023-03-26T00:09:32.358Z,95.25
2023-03-26T00:10:32.338Z,95.26
2023-03-26T00:11:32.310Z,95.22
2023-03-26T00:12:32.338Z,95.11
2023-03-26T00:13:32.286Z,95.11
2023-03-26T00:14:32.291Z,95.11
2023-03-26T00:15:32.268Z,95.10
2023-03-26T00:16:32.327Z,95.20
2023-03-26T00:17:32.264Z,95.35
2023-03-26T00:18:32.262Z,95.42
2023-03-26T00:19:32.222Z,95.38
2023-03-26T00:20:32.210Z,95.45
2023-03-26T00:21:32.204Z,95.46
2023-03-26T00:22:32.175Z,95.55
2023-03-26T00:23:32.156Z,95.54
2023-03-26T00:24:32.190Z,95.66
2023-03-26T00:25:32.150Z,95.77
2023-03-26T00:26:32.147Z,95.91
2023-03-26T00:27:32.130Z,96.14
2023-03-26T00:28:32.173Z,96.10
2023-03-26T00:29:32.132Z,96.34
2023-03-26T00:30:32.193Z,96.43
2023-03-26T00:31:32.078Z,96.46
2023-03-26T00:32:32.101Z,96.55
2023-03-26T00:33:32.037Z,96.61
2023-03-26T00:34:32.037Z,96.64
2023-03-26T00:35:32.094Z,96.85
2023-03-26T00:36:32.069Z,96.90
2023-03-26T00:37:31.987Z,96.99
2023-03-26T00:38:31.974Z,96.89
2023-03-26T00:39:31.976Z,96.77
2023-03-26T00:40:31.952Z,96.72
2023-03-26T00:41:31.938Z,96.63
2023-03-26T00:42:31.965Z,96.61
2023-03-26T00:43:31.917Z,96.71
2023-03-26T00:44:31.910Z,96.60
2023-03-26T00:45:31.898Z,96.62
2023-03-26T00:46:32.004Z,96.62
2023-03-26T00:47:31.887Z,96.66
2023-03-26T00:48:44.471Z,96.66
2023-03-26T00:49:31.857Z,96.63
2023-03-26T00:50:31.829Z,96.63
2023-03-26T00:51:31.827Z,96.66
2023-03-26T00:52:31.885Z,96.69
2023-03-26T00:53:31.788Z,96.64
2023-03-26T00:54:31.826Z,96.56
2023-03-26T00:55:31.775Z,96.57
2023-03-26T00:56:31.808Z,96.48
2023-03-26T00:57:35.751Z,96.40
2023-03-26T00:58:31.761Z,96.38
2023-03-26T00:59:31.722Z,96.38
2023-03-26T01:00:38.269Z,96.40
2023-03-26T01:01:31.729Z,96.33
2023-03-26T01:02:31.814Z,96.27
2023-03-26T01:03:31.761Z,96.21
2023-03-26T01:04:32.190Z,96.13
2023-03-26T01:05:31.677Z,96.24
2023-03-26T01:06:31.683Z,96.39
2023-03-26T01:07:31.641Z,96.44
2023-03-26T01:08:31.615Z,96.50
2023-03-26T01:09:31.621Z,96.65
2023-03-26T01:10:31.590Z,96.64
2023-03-26T01:11:31.560Z,96.66
2023-03-26T01:12:31.596Z,96.70
2023-03-26T01:13:31.555Z,96.74
2023-03-26T01:14:31.544Z,96.78
2023-03-26T01:15:31.676Z,96.80
2023-03-26T01:16:31.533Z,96.79
2023-03-26T01:17:31.564Z,96.83
2023-03-26T01:18:31.503Z,96.78
2023-03-26T01:19:31.474Z,96.69
2023-03-26T01:20:31.477Z,96.56
2023-03-26T01:21:31.439Z,96.40
2023-03-26T01:22:31.426Z,96.17
2023-03-26T01:23:31.444Z,96.08
2023-03-26T01:24:31.463Z,95.98
2023-03-26T01:25:31.394Z,95.96
2023-03-26T01:26:31.390Z,95.84
2023-03-26T01:27:31.376Z,95.59
2023-03-26T01:28:31.360Z,95.40
2023-03-26T01:29:31.346Z,95.32
2023-03-26T01:30:31.375Z,95.20
2023-03-26T01:31:31.338Z,95.12
2023-03-26T01:32:31.386Z,95.03
2023-03-26T01:33:31.392Z,94.94
2023-03-26T01:34:31.276Z,94.94
2023-03-26T01:35:31.274Z,94.94
2023-03-26T01:36:31.315Z,94.92
2023-03-26T01:37:31.246Z,94.93
2023-03-26T01:38:31.249Z,95.05
2023-03-26T01:39:31.229Z,95.08
2023-03-26T01:40:31.236Z,95.09
2023-03-26T01:41:31.195Z,95.08
2023-03-26T01:42:31.224Z,95.13
2023-03-26T01:43:31.184Z,95.12
2023-03-26T01:44:31.171Z,95.09
2023-03-26T01:45:31.170Z,95.17
2023-03-26T01:46:31.164Z,95.16
2023-03-26T01:47:31.203Z,95.04
2023-03-26T01:48:31.140Z,94.88
2023-03-26T01:49:31.083Z,94.84
2023-03-26T01:50:31.069Z,94.76
2023-03-26T01:51:31.055Z,94.88
2023-03-26T01:52:31.070Z,94.73
2023-03-26T01:53:31.030Z,94.63
2023-03-26T01:54:31.050Z,94.59
2023-03-26T01:55:31.006Z,94.51
2023-03-26T01:56:31.032Z,94.44
2023-03-26T01:57:30.987Z,94.44
2023-03-26T01:58:30.975Z,94.50
2023-03-26T01:59:30.966Z,94.41
2023-03-26T02:00:31.030Z,94.43
2023-03-26T02:01:30.995Z,94.42
2023-03-26T02:02:31.108Z,94.52
2023-03-26T02:03:30.999Z,94.53
2023-03-26T02:04:30.914Z,94.43
2023-03-26T02:05:30.887Z,94.39
2023-03-26T02:06:30.964Z,94.37
2023-03-26T02:07:30.912Z,94.53
2023-03-26T02:08:30.880Z,94.50
2023-03-26T02:09:30.851Z,94.58
2023-03-26T02:10:30.848Z,94.50
2023-03-26T02:11:35.309Z,94.64
2023-03-26T02:12:30.861Z,94.61
2023-03-26T02:13:30.784Z,94.60
2023-03-26T02:14:30.778Z,94.64
2023-03-26T02:15:30.774Z,94.69
2023-03-26T02:16:30.789Z,94.68
2023-03-26T02:17:30.757Z,94.60
2023-03-26T02:18:30.759Z,94.49
2023-03-26T02:19:30.729Z,94.47
2023-03-26T02:20:30.701Z,94.52
2023-03-26T02:21:30.679Z,94.77
2023-03-26T02:22:30.653Z,94.85
2023-03-26T02:23:30.659Z,94.90
2023-03-26T02:24:30.678Z,94.99
2023-03-26T02:25:30.638Z,94.93
2023-03-26T02:26:30.608Z,94.89
2023-03-26T02:27:30.609Z,94.94
2023-03-26T02:28:30.605Z,94.90
2023-03-26T02:29:30.604Z,94.90
2023-03-26T02:30:30.621Z,94.74
2023-03-26T02:31:30.630Z,94.22
2023-03-26T02:32:30.567Z,94.04
2023-03-26T02:33:30.541Z,93.81
2023-03-26T02:34:30.589Z,93.30
2023-03-26T02:35:30.548Z,93.18
2023-03-26T02:36:30.596Z,92.63
2023-03-26T02:37:30.521Z,92.46
2023-03-26T02:38:30.458Z,92.34
2023-03-26T02:39:30.449Z,92.31
2023-03-26T02:40:30.483Z,92.03
2023-03-26T02:41:30.438Z,91.96
2023-03-26T02:42:30.454Z,91.97
2023-03-26T02:43:30.405Z,91.99
2023-03-26T02:44:30.393Z,91.96
2023-03-26T02:45:30.424Z,92.08
2023-03-26T02:46:30.398Z,91.89
2023-03-26T02:47:30.403Z,91.87
2023-03-26T02:48:30.383Z,91.76
2023-03-26T02:49:30.321Z,91.49
2023-03-26T02:50:30.321Z,91.38
2023-03-26T02:51:30.297Z,91.18
2023-03-26T02:52:30.278Z,91.13
2023-03-26T02:53:30.284Z,90.84
2023-03-26T02:54:30.288Z,90.73
2023-03-26T02:55:30.268Z,90.86
2023-03-26T02:56:30.256Z,90.74
2023-03-26T02:57:30.226Z,90.54
2023-03-26T02:58:30.217Z,90.41
2023-03-26T02:59:30.208Z,90.42
2023-03-26T03:00:30.224Z,90.16
2023-03-26T03:01:30.233Z,90.05
2023-03-26T03:02:30.198Z,89.98
2023-03-26T03:03:30.277Z,89.78
2023-03-26T03:04:30.138Z,89.79
2023-03-26T03:05:30.143Z,89.78
2023-03-26T03:06:30.129Z,89.90
2023-03-26T03:07:30.090Z,89.76
2023-03-26T03:08:30.084Z,89.68
2023-03-26T03:09:30.079Z,89.66
2023-03-26T03:10:30.072Z,89.66
2023-03-26T03:11:30.045Z,89.85
2023-03-26T03:12:30.068Z,89.98
2023-03-26T03:13:30.014Z,90.17
2023-03-26T03:14:30.019Z,89.95
2023-03-26T03:15:30.013Z,90.02
2023-03-26T03:16:30.085Z,90.11
2023-03-26T03:17:29.982Z,90.26
2023-03-26T03:18:29.988Z,90.35
2023-03-26T03:19:29.961Z,90.27
2023-03-26T03:20:29.953Z,90.47
2023-03-26T03:21:29.943Z,90.37
2023-03-26T03:22:29.916Z,90.42
2023-03-26T03:23:29.917Z,90.50
2023-03-26T03:24:29.901Z,90.50
2023-03-26T03:25:29.866Z,90.38
2023-03-26T03:26:30.138Z,90.08
2023-03-26T03:27:29.839Z,89.89
2023-03-26T03:28:29.826Z,89.77
2023-03-26T03:29:29.829Z,89.44
2023-03-26T03:30:29.857Z,89.37
2023-03-26T03:31:29.842Z,89.31
2023-03-26T03:32:29.783Z,89.28
2023-03-26T03:33:29.795Z,89.11
2023-03-26T03:34:29.755Z,89.19
2023-03-26T03:35:29.786Z,89.39
2023-03-26T03:36:29.773Z,89.14
2023-03-26T03:37:29.731Z,89.05
2023-03-26T03:38:29.710Z,89.21
2023-03-26T03:39:29.713Z,89.15
2023-03-26T03:40:29.685Z,89.46
2023-03-26T03:41:29.739Z,89.66
2023-03-26T03:42:29.686Z,89.57
2023-03-26T03:43:29.637Z,89.74
2023-03-26T03:44:29.683Z,90.00
2023-03-26T03:45:29.650Z,90.10
2023-03-26T03:46:29.708Z,90.19
2023-03-26T03:47:29.665Z,90.35
2023-03-26T03:48:29.607Z,90.30
2023-03-26T03:49:29.595Z,90.45
2023-03-26T03:50:29.657Z,90.35
2023-03-26T03:51:29.566Z,90.59
2023-03-26T03:52:29.532Z,90.75
2023-03-26T03:53:29.569Z,91.06
2023-03-26T03:54:29.543Z,90.96
2023-03-26T03:55:29.507Z,91.43
2023-03-26T03:56:29.509Z,91.76
2023-03-26T03:57:29.478Z,91.98
2023-03-26T03:58:29.446Z,92.12
2023-03-26T03:59:29.451Z,92.35
2023-03-26T04:00:29.469Z,92.59
2023-03-26T04:01:29.436Z,92.81
2023-03-26T04:02:29.462Z,92.92
2023-03-26T04:03:33.828Z,92.90
2023-03-26T04:04:29.472Z,92.58
2023-03-26T04:05:29.383Z,92.74
2023-03-26T04:06:29.395Z,92.93
2023-03-26T04:07:29.348Z,93.15
2023-03-26T04:08:29.337Z,93.28
2023-03-26T04:09:29.309Z,93.44
2023-03-26T04:10:29.350Z,93.55
2023-03-26T04:11:29.301Z,93.61
2023-03-26T04:12:29.310Z,93.61
2023-03-26T04:13:29.266Z,93.56
2023-03-26T04:14:29.250Z,93.43
2023-03-26T04:15:29.264Z,93.04
2023-03-26T04:16:29.248Z,92.99
2023-03-26T04:17:29.249Z,93.19
2023-03-26T04:18:29.245Z,92.82
2023-03-26T04:19:29.195Z,92.64
2023-03-26T04:20:29.184Z,92.36
2023-03-26T04:21:29.190Z,92.27
2023-03-26T04:22:29.160Z,92.18
2023-03-26T04:23:29.136Z,91.82
2023-03-26T04:24:29.149Z,91.70
2023-03-26T04:25:29.116Z,91.74
2023-03-26T04:26:29.105Z,91.75
2023-03-26T04:27:29.102Z,91.84
2023-03-26T04:28:29.089Z,91.97
2023-03-26T04:29:29.071Z,92.05
2023-03-26T04:30:29.091Z,92.37
2023-03-26T04:31:29.377Z,92.88
2023-03-26T04:32:29.076Z,93.30
2023-03-26T04:33:29.027Z,93.53
2023-03-26T04:34:28.997Z,93.55
2023-03-26T04:35:29.039Z,93.53
2023-03-26T04:36:29.052Z,93.70
2023-03-26T04:37:28.994Z,93.80
2023-03-26T04:38:28.971Z,94.01
2023-03-26T04:39:28.945Z,94.26
2023-03-26T04:40:28.943Z,94.71
2023-03-26T04:41:28.932Z,95.00
2023-03-26T04:42:28.940Z,95.36
2023-03-26T04:43:28.891Z,95.61
2023-03-26T04:44:28.871Z,95.81
2023-03-26T04:45:28.881Z,95.87
2023-03-26T04:46:28.917Z,95.75
2023-03-26T04:47:28.907Z,95.62
2023-03-26T04:48:28.864Z,95.36
2023-03-26T04:49:28.820Z,95.26
2023-03-26T04:50:28.809Z,95.04
2023-03-26T04:51:28.806Z,95.22
2023-03-26T04:52:28.790Z,95.31
2023-03-26T04:53:28.775Z,95.23
2023-03-26T04:54:28.781Z,95.21
2023-03-26T04:55:28.746Z,95.11
2023-03-26T04:56:28.742Z,95.35
2023-03-26T04:57:28.720Z,95.29
2023-03-26T04:58:28.719Z,95.18
2023-03-26T04:59:28.688Z,95.22
2023-03-26T05:00:28.714Z,95.37
2023-03-26T05:01:28.753Z,95.41
2023-03-26T05:02:28.683Z,95.50
2023-03-26T05:03:28.647Z,95.68
2023-03-26T05:04:28.652Z,95.64
2023-03-26T05:05:28.613Z,95.59
2023-03-26T05:06:28.655Z,95.76
2023-03-26T05:07:28.589Z,95.78
2023-03-26T05:08:28.610Z,95.82
2023-03-26T05:09:28.623Z,95.93
2023-03-26T05:10:28.602Z,95.84
2023-03-26T05:11:28.553Z,95.87
2023-03-26T05:12:28.610Z,96.06
2023-03-26T05:13:28.526Z,96.11
2023-03-26T05:14:28.516Z,96.00
2023-03-26T05:15:28.482Z,96.05
2023-03-26T05:16:28.504Z,96.07
2023-03-26T05:17:28.487Z,95.83
2023-03-26T05:18:28.487Z,95.89
2023-03-26T05:19:28.447Z,95.82
2023-03-26T05:20:28.453Z,95.71
2023-03-26T05:21:28.431Z,95.79
2023-03-26T05:22:28.401Z,96.02
2023-03-26T05:23:28.397Z,96.30
2023-03-26T05:24:28.407Z,96.51
2023-03-26T05:25:28.414Z,96.52
2023-03-26T05:26:28.425Z,96.46
2023-03-26T05:27:28.342Z,96.39
2023-03-26T05:28:28.339Z,96.18
2023-03-26T05:29:28.314Z,96.23
2023-03-26T05:30:28.335Z,96.07
2023-03-26T05:31:28.303Z,95.89
2023-03-26T05:32:28.307Z,95.92
2023-03-26T05:33:28.337Z,95.62
2023-03-26T05:34:28.247Z,95.60
2023-03-26T05:35:28.243Z,95.64
2023-03-26T05:36:28.252Z,95.98
2023-03-26T05:37:28.217Z,95.81
2023-03-26T05:38:28.242Z,95.45
2023-03-26T05:39:28.200Z,95.59
2023-03-26T05:40:28.178Z,95.50
2023-03-26T05:41:28.170Z,95.82
2023-03-26T05:42:28.200Z,96.06
2023-03-26T05:43:28.157Z,95.87
2023-03-26T05:44:29.103Z,95.65
2023-03-26T05:45:28.151Z,95.53
2023-03-26T05:46:28.128Z,95.31
2023-03-26T05:47:28.133Z,94.84
2023-03-26T05:48:28.118Z,95.18
2023-03-26T05:49:28.072Z,95.30
2023-03-26T05:50:28.048Z,95.38
2023-03-26T05:51:28.057Z,95.80
2023-03-26T05:52:28.042Z,95.85
2023-03-26T05:53:28.075Z,95.52
2023-03-26T05:54:28.053Z,95.33
2023-03-26T05:55:28.019Z,95.45
2023-03-26T05:56:28.038Z,95.32
2023-03-26T05:57:27.950Z,95.44
2023-03-26T05:58:27.946Z,95.32
2023-03-26T05:59:27.944Z,95.36
2023-03-26T06:00:27.936Z,95.48
2023-03-26T06:01:27.933Z,95.97
2023-03-26T06:02:27.929Z,96.26
2023-03-26T06:03:28.029Z,96.42
2023-03-26T06:04:28.069Z,96.39
2023-03-26T06:05:27.875Z,96.48
2023-03-26T06:06:27.935Z,96.22
2023-03-26T06:07:27.852Z,95.93
2023-03-26T06:08:27.820Z,95.82
2023-03-26T06:09:27.836Z,95.82
2023-03-26T06:10:27.838Z,95.68
2023-03-26T06:11:27.780Z,95.48
2023-03-26T06:12:27.794Z,95.42
2023-03-26T06:13:27.758Z,95.60
2023-03-26T06:14:27.759Z,95.17
2023-03-26T06:15:27.738Z,95.31
2023-03-26T06:16:28.384Z,95.26
2023-03-26T06:17:27.740Z,95.37
2023-03-26T06:18:27.754Z,95.32
2023-03-26T06:19:27.700Z,95.51
2023-03-26T06:20:27.727Z,95.27
2023-03-26T06:21:27.654Z,95.06
2023-03-26T06:22:27.651Z,95.29
2023-03-26T06:23:27.620Z,95.51
2023-03-26T06:24:27.654Z,95.47
2023-03-26T06:25:27.616Z,95.61
2023-03-26T06:26:27.591Z,95.69
2023-03-26T06:27:27.587Z,95.77
2023-03-26T06:28:27.583Z,95.95
2023-03-26T06:29:27.549Z,95.62
2023-03-26T06:30:27.603Z,95.60
2023-03-26T06:31:27.589Z,95.74
2023-03-26T06:32:27.540Z,95.51
2023-03-26T06:33:27.494Z,95.66
2023-03-26T06:34:27.504Z,95.74
2023-03-26T06:35:27.501Z,95.01
2023-03-26T06:36:27.537Z,94.61
2023-03-26T06:37:27.471Z,94.19
2023-03-26T06:38:27.467Z,93.91
2023-03-26T06:39:27.435Z,94.00
2023-03-26T06:40:27.429Z,94.10
2023-03-26T06:41:27.397Z,94.20
2023-03-26T06:43:07.121Z,94.12
2023-03-26T06:43:27.395Z,94.30
2023-03-26T06:44:27.363Z,94.42
2023-03-26T06:45:27.356Z,94.17
2023-03-26T06:46:27.396Z,94.17
2023-03-26T06:47:27.347Z,93.98
2023-03-26T06:48:27.366Z,93.92
2023-03-26T06:49:27.309Z,93.88
2023-03-26T06:50:27.294Z,93.81
2023-03-26T06:51:27.333Z,93.72
2023-03-26T06:52:27.265Z,93.89
2023-03-26T06:53:27.267Z,93.82
2023-03-26T06:54:27.315Z,93.53
2023-03-26T06:55:27.270Z,92.95
2023-03-26T06:56:27.264Z,93.04
2023-03-26T06:57:27.207Z,92.46
2023-03-26T06:58:27.196Z,91.88
2023-03-26T06:59:27.182Z,91.48
2023-03-26T07:00:27.191Z,91.52
2023-03-26T07:01:27.164Z,91.55
2023-03-26T07:02:27.168Z,91.81
2023-03-26T07:03:27.135Z,91.88
2023-03-26T07:04:27.144Z,91.79
2023-03-26T07:05:27.121Z,91.95
2023-03-26T07:06:27.162Z,91.89
2023-03-26T07:07:27.077Z,91.97
2023-03-26T07:08:27.073Z,91.99
2023-03-26T07:09:27.049Z,92.46
2023-03-26T07:10:27.077Z,92.57
2023-03-26T07:11:27.155Z,92.64
2023-03-26T07:12:27.051Z,93.00
2023-03-26T07:13:27.024Z,92.97
2023-03-26T07:14:26.988Z,93.06
2023-03-26T07:15:27.019Z,93.41
2023-03-26T07:16:27.065Z,93.48
2023-03-26T07:17:26.964Z,93.61
2023-03-26T07:18:26.976Z,93.93
2023-03-26T07:19:26.947Z,94.36
2023-03-26T07:20:26.949Z,94.77
2023-03-26T07:21:26.957Z,94.75
2023-03-26T07:22:26.894Z,94.73
2023-03-26T07:23:26.888Z,95.19
2023-03-26T07:24:26.911Z,95.65
2023-03-26T07:25:26.882Z,95.64
2023-03-26T07:26:26.878Z,95.90
2023-03-26T07:27:26.818Z,95.64
2023-03-26T07:28:26.809Z,95.54
2023-03-26T07:29:26.897Z,95.52
2023-03-26T07:30:26.833Z,95.70
2023-03-26T07:31:26.811Z,95.93
2023-03-26T07:32:26.799Z,95.75
2023-03-26T07:33:26.755Z,96.03
2023-03-26T07:34:26.755Z,96.03
2023-03-26T07:35:26.767Z,96.08
2023-03-26T07:36:26.745Z,95.94
2023-03-26T07:37:26.697Z,96.15
2023-03-26T07:38:26.678Z,96.12
2023-03-26T07:39:28.020Z,95.99
2023-03-26T07:40:26.666Z,96.08
2023-03-26T07:41:26.824Z,96.29
2023-03-26T07:42:26.655Z,96.58
2023-03-26T07:43:26.621Z,96.72
2023-03-26T07:44:26.609Z,96.79
2023-03-26T07:45:26.586Z,96.95
2023-03-26T07:46:26.597Z,97.09
2023-03-26T07:47:26.614Z,97.11
2023-03-26T07:48:26.608Z,97.17
2023-03-26T07:49:26.532Z,97.18
2023-03-26T07:50:26.523Z,96.76
2023-03-26T07:51:26.522Z,96.82
2023-03-26T07:52:26.527Z,96.90
2023-03-26T07:53:26.486Z,96.89
2023-03-26T07:54:26.511Z,96.75
2023-03-26T07:55:26.482Z,97.07
2023-03-26T07:56:26.514Z,97.27
2023-03-26T07:57:26.492Z,97.23
2023-03-26T07:58:26.435Z,97.00
2023-03-26T07:59:26.447Z,96.95
2023-03-26T08:00:26.438Z,97.49
2023-03-26T08:01:26.387Z,97.91
2023-03-26T08:02:26.501Z,97.74
2023-03-26T08:03:26.517Z,97.38
2023-03-26T08:04:26.580Z,97.56
2023-03-26T08:05:26.354Z,97.81
2023-03-26T08:06:26.404Z,97.91
2023-03-26T08:07:26.336Z,97.71
2023-03-26T08:08:26.306Z,97.69
2023-03-26T08:09:26.326Z,97.80
2023-03-26T08:10:26.278Z,97.82
2023-03-26T08:11:26.271Z,97.86
2023-03-26T08:12:26.310Z,97.85
2023-03-26T08:13:26.248Z,97.81
2023-03-26T08:14:26.223Z,97.73
2023-03-26T08:15:26.272Z,97.71
2023-03-26T08:16:26.261Z,97.74
2023-03-26T08:17:26.219Z,97.55
2023-03-26T08:18:26.197Z,97.72
2023-03-26T08:19:26.167Z,97.89
2023-03-26T08:20:26.171Z,97.89
2023-03-26T08:21:26.156Z,97.85
2023-03-26T08:22:26.115Z,97.85
2023-03-26T08:23:26.105Z,97.79
2023-03-26T08:24:26.127Z,97.76
2023-03-26T08:25:26.074Z,97.97
2023-03-26T08:26:26.077Z,97.79
2023-03-26T08:27:26.106Z,97.70
2023-03-26T08:28:26.061Z,97.80
2023-03-26T08:29:26.072Z,97.54
2023-03-26T08:30:26.085Z,97.36
2023-03-26T08:31:26.068Z,97.19
2023-03-26T08:32:26.092Z,97.22
2023-03-26T08:33:26.042Z,97.26
2023-03-26T08:34:25.959Z,97.52
2023-03-26T08:35:25.978Z,97.60
2023-03-26T08:36:26.005Z,97.36
2023-03-26T08:37:25.986Z,97.49
2023-03-26T08:38:25.940Z,97.72
2023-03-26T08:39:25.920Z,97.87
2023-03-26T08:40:25.888Z,97.91
2023-03-26T08:41:25.918Z,97.83
2023-03-26T08:42:25.932Z,98.03
2023-03-26T08:43:25.867Z,98.19
2023-03-26T08:44:25.852Z,98.21
2023-03-26T08:45:25.825Z,98.23
2023-03-26T08:46:25.816Z,98.46
2023-03-26T08:47:25.851Z,98.50
2023-03-26T08:48:25.833Z,98.64
2023-03-26T08:49:27.267Z,98.72
2023-03-26T08:50:25.756Z,98.66
2023-03-26T08:51:25.764Z,98.62
2023-03-26T08:52:25.758Z,98.43
2023-03-26T08:53:25.735Z,98.45
2023-03-26T08:54:25.767Z,98.39
2023-03-26T08:55:25.699Z,98.46
2023-03-26T08:56:25.719Z,98.55
2023-03-26T08:57:25.702Z,98.60
2023-03-26T08:58:25.677Z,98.77
2023-03-26T08:59:25.660Z,98.81
2023-03-26T09:00:25.689Z,98.77
2023-03-26T09:01:25.664Z,98.82
2023-03-26T09:02:25.642Z,98.93
2023-03-26T09:03:25.646Z,98.90
2023-03-26T09:04:25.616Z,99.16
2023-03-26T09:05:25.582Z,99.34
2023-03-26T09:06:25.594Z,99.44
2023-03-26T09:07:25.564Z,99.41
2023-03-26T09:08:25.542Z,99.44
2023-03-26T09:09:25.535Z,99.43
2023-03-26T09:10:25.507Z,99.44
2023-03-26T09:11:25.521Z,99.45
2023-03-26T09:12:25.610Z,99.50
2023-03-26T09:13:25.475Z,99.54
2023-03-26T09:14:25.505Z,99.50
2023-03-26T09:15:25.481Z,99.56
2023-03-26T09:16:25.495Z,99.58
2023-03-26T09:17:25.529Z,99.40
2023-03-26T09:18:25.445Z,99.38
2023-03-26T09:19:25.422Z,99.35
2023-03-26T09:20:25.381Z,99.25
2023-03-26T09:21:25.363Z,99.15
2023-03-26T09:22:25.432Z,99.17
2023-03-26T09:23:25.382Z,99.08
2023-03-26T09:24:25.382Z,99.11
2023-03-26T09:25:25.393Z,99.29
2023-03-26T09:26:25.331Z,99.31
2023-03-26T09:27:25.380Z,99.44
2023-03-26T09:28:25.296Z,99.49
2023-03-26T09:29:25.345Z,99.46
2023-03-26T09:30:25.311Z,99.60
2023-03-26T09:31:25.263Z,99.68
2023-03-26T09:32:25.262Z,99.65
2023-03-26T09:33:25.235Z,99.57
2023-03-26T09:34:25.238Z,99.44
2023-03-26T09:35:25.228Z,99.34
2023-03-26T09:36:25.235Z,99.22
2023-03-26T09:37:25.183Z,99.20
2023-03-26T09:38:25.177Z,99.31
2023-03-26T09:39:25.185Z,99.35
2023-03-26T09:40:25.171Z,99.32
2023-03-26T09:41:25.182Z,99.22
2023-03-26T09:42:25.154Z,98.95
2023-03-26T09:43:25.127Z,99.01
2023-03-26T09:44:25.073Z,99.00
2023-03-26T09:45:25.126Z,99.15
2023-03-26T09:46:25.050Z,99.22
2023-03-26T09:47:25.140Z,99.20
2023-03-26T09:48:25.101Z,99.15
2023-03-26T09:49:25.016Z,99.09
2023-03-26T09:50:25.027Z,99.14
2023-03-26T09:51:26.694Z,99.06
2023-03-26T09:52:24.970Z,99.06
2023-03-26T09:53:24.965Z,99.09
2023-03-26T09:54:24.982Z,99.10
2023-03-26T09:55:24.963Z,98.97
2023-03-26T09:56:24.929Z,98.87
2023-03-26T09:57:25.115Z,98.86
2023-03-26T09:58:24.965Z,98.85
2023-03-26T09:59:24.896Z,98.78
2023-03-26T10:00:24.918Z,98.49
2023-03-26T10:01:24.919Z,98.35
2023-03-26T10:02:45.839Z,98.46
2023-03-26T10:03:26.798Z,98.56
2023-03-26T10:04:24.925Z,98.64
2023-03-26T10:05:24.848Z,98.77
2023-03-26T10:06:24.824Z,98.81
2023-03-26T10:07:24.784Z,98.42
2023-03-26T10:08:24.790Z,98.60
2023-03-26T10:09:24.766Z,98.68
2023-03-26T10:10:24.767Z,98.61
2023-03-26T10:11:24.758Z,98.22
2023-03-26T10:12:24.773Z,97.89
2023-03-26T10:13:24.724Z,97.98
2023-03-26T10:14:24.705Z,97.57
2023-03-26T10:15:25.236Z,97.09
2023-03-26T10:16:24.709Z,97.20
2023-03-26T10:17:24.697Z,97.34
2023-03-26T10:18:27.909Z,97.26
2023-03-26T10:19:24.657Z,97.38
2023-03-26T10:20:24.821Z,96.88
2023-03-26T10:21:26.139Z,96.90
2023-03-26T10:22:24.607Z,96.44
2023-03-26T10:23:24.580Z,95.53
2023-03-26T10:24:24.779Z,94.71
2023-03-26T10:25:24.641Z,93.75
2023-03-26T10:26:24.558Z,92.28
2023-03-26T10:27:24.815Z,92.24
2023-03-26T10:28:24.517Z,91.26
2023-03-26T10:29:24.529Z,91.37
2023-03-26T10:30:24.565Z,91.89
2023-03-26T10:31:24.517Z,92.52
2023-03-26T10:32:24.467Z,92.61
2023-03-26T10:33:25.243Z,92.23
2023-03-26T10:39:11.611Z,92.12
2023-03-26T10:39:43.475Z,90.68
2023-03-26T10:40:22.368Z,90.26
2023-03-26T10:41:22.335Z,89.53
2023-03-26T10:42:22.317Z,90.27
2023-03-26T10:43:22.306Z,90.36
2023-03-26T10:44:22.327Z,90.38
2023-03-26T10:45:22.283Z,90.70
2023-03-26T10:46:22.318Z,89.50
2023-03-26T10:47:22.289Z,85.79
2023-03-26T10:48:22.322Z,85.96
2023-03-26T10:49:22.231Z,83.45
2023-03-26T10:52:52.114Z,82.82
2023-03-26T10:52:57.946Z,81.56
2023-03-26T10:53:57.964Z,80.94
2023-03-26T10:54:57.936Z,80.79
2023-03-26T10:55:57.975Z,81.13
2023-03-26T10:56:57.930Z,82.45
2023-03-26T10:57:57.932Z,82.65
2023-03-26T10:58:57.950Z,82.30
2023-03-26T10:59:57.874Z,82.66
2023-03-26T11:00:57.847Z,81.30
2023-03-26T11:01:57.902Z,83.05
2023-03-26T11:02:57.961Z,81.55
2023-03-26T11:03:57.981Z,82.69
2023-03-26T11:04:57.829Z,83.77
2023-03-26T11:05:57.848Z,84.54
2023-03-26T11:06:57.786Z,85.04
2023-03-26T11:07:57.813Z,84.85
2023-03-26T11:08:57.773Z,85.19
2023-03-26T11:09:57.756Z,84.63
2023-03-26T11:10:57.830Z,85.57
2023-03-26T11:11:57.761Z,86.09
2023-03-26T11:12:57.701Z,86.17
2023-03-26T11:13:57.739Z,86.97
2023-03-26T11:14:57.710Z,86.26
2023-03-26T11:15:57.755Z,87.59
2023-03-26T11:16:57.683Z,88.06
2023-03-26T11:17:57.659Z,88.43
2023-03-26T11:18:57.643Z,86.75
2023-03-26T11:19:57.722Z,86.89
2023-03-26T11:21:18.129Z,87.10
2023-03-26T11:21:57.624Z,87.62
2023-03-26T11:22:57.605Z,87.97
2023-03-26T11:24:05.420Z,87.24
2023-03-26T11:24:57.567Z,87.23
2023-03-26T11:25:57.610Z,85.86
2023-03-26T11:26:57.528Z,85.97
2023-03-26T11:27:57.514Z,85.39
2023-03-26T11:34:36.679Z,86.07
2023-03-26T11:34:42.143Z,85.75
2023-03-26T11:34:48.076Z,86.33
2023-03-26T11:35:48.012Z,86.59
2023-03-26T11:36:47.993Z,86.82
2023-03-26T11:37:47.987Z,86.23
2023-03-26T11:38:47.971Z,86.22
2023-03-26T11:39:47.980Z,86.52
2023-03-26T11:40:47.936Z,85.58
2023-03-26T11:41:47.927Z,85.10
2023-03-26T11:42:47.929Z,85.41
2023-03-26T11:43:47.928Z,85.27
2023-03-26T11:44:47.961Z,85.63
2023-03-26T11:45:47.899Z,85.55
2023-03-26T11:46:47.932Z,85.97
2023-03-26T11:47:47.895Z,85.84
2023-03-26T11:48:47.836Z,85.13
2023-03-26T11:49:47.846Z,85.88
2023-03-26T11:50:47.818Z,86.08
2023-03-26T11:51:47.846Z,86.20
2023-03-26T11:52:47.816Z,85.60
2023-03-26T11:53:47.768Z,85.42
2023-03-26T11:54:47.761Z,85.85
2023-03-26T11:55:47.757Z,85.70
2023-03-26T11:57:04.524Z,85.74
2023-03-26T11:57:47.759Z,85.51
2023-03-26T11:58:47.737Z,85.73
2023-03-26T11:59:56.617Z,86.73
2023-03-26T12:00:47.696Z,86.76
2023-03-26T12:01:47.709Z,85.91
2023-03-26T12:02:47.672Z,84.45
2023-03-26T12:03:47.686Z,84.23
2023-03-26T12:04:47.686Z,84.44
2023-03-26T12:05:47.638Z,83.63
2023-03-26T12:06:47.626Z,84.51
2023-03-26T12:07:47.600Z,84.49
2023-03-26T12:08:47.588Z,84.16
2023-03-26T12:09:47.670Z,83.97
2023-03-26T12:10:47.583Z,83.96
2023-03-26T12:11:47.529Z,83.53
2023-03-26T12:12:47.528Z,84.14
2023-03-26T12:13:47.533Z,83.84
2023-03-26T12:14:47.494Z,83.99
2023-03-26T12:15:47.560Z,83.31
2023-03-26T12:16:47.526Z,83.44
2023-03-26T12:17:47.561Z,83.35
2023-03-26T12:18:47.449Z,83.37
2023-03-26T12:19:47.434Z,83.79
2023-03-26T12:20:47.412Z,83.55
2023-03-26T12:21:47.473Z,82.81
2023-03-26T12:22:47.953Z,82.65
2023-03-26T12:23:47.379Z,83.47
2023-03-26T12:24:47.377Z,83.55
2023-03-26T12:25:47.353Z,82.36
2023-03-26T12:26:47.354Z,81.08
2023-03-26T12:27:47.375Z,81.99
2023-03-26T12:28:47.351Z,81.55
2023-03-26T12:29:47.368Z,81.49
2023-03-26T12:30:47.324Z,82.32
2023-03-26T12:31:47.433Z,81.72
2023-03-26T12:32:47.318Z,80.89
2023-03-26T12:33:47.307Z,79.82
2023-03-26T12:34:47.250Z,80.25
2023-03-26T12:35:47.310Z,80.69
2023-03-26T12:36:47.252Z,81.31
2023-03-26T12:37:47.267Z,80.56
2023-03-26T12:39:43.163Z,80.37
2023-03-26T12:40:17.102Z,79.88
2023-03-26T12:40:47.167Z,81.68
2023-03-26T12:43:40.602Z,80.53
2023-03-26T12:44:59.028Z,81.89
2023-03-26T12:45:06.158Z,79.32
2023-03-26T12:47:45.994Z,78.25
2023-03-26T12:48:07.265Z,78.29
2023-03-26T12:48:13.393Z,77.49
2023-03-26T12:49:13.268Z,80.40
2023-03-26T12:51:40.604Z,78.67
2023-03-26T12:51:46.477Z,77.41
2023-03-26T12:52:46.463Z,76.37
2023-03-26T12:53:46.537Z,78.50
2023-03-26T12:54:46.432Z,78.19
2023-03-26T12:55:46.447Z,76.78
2023-03-26T12:56:46.457Z,76.40
2023-03-26T12:57:46.387Z,75.18
2023-03-26T12:58:46.420Z,75.70
2023-03-26T12:59:46.380Z,74.44
2023-03-26T13:00:46.422Z,73.56
2023-03-26T13:01:46.451Z,73.48
2023-03-26T13:02:46.436Z,73.93
2023-03-26T13:03:46.317Z,73.04